Main page
METAR-TAF:

METAR-TAF

Airports :

Governor Francisco Gabrielli International Airport

Mendoza, Argentina

latitude: 32-50S, longitude: 068-47W, elevation: 705 m

Current weather observation

The report was made 16 minutes ago, at 21:00 UTC
Wind 4 kt from the East
Temperature 34°C
Humidity 26%
Pressure 1011 hPa
Visibility 10 km or more
Scattered clouds at a height of 4000 ft

METAR: SAME 262100Z 09004KT 9999 SCT040 34/12 Q1011

Time: 18:16 (21:16 UTC)

Forecast

The report was made 4 hours and 16 minutes ago, at 17:00 UTC
Forecast valid from 26 at 18 UTC to 27 at 18 UTC
Wind 10 kt from the East
Visibility 10 km or more
Few clouds at a height of 5000 ft, Towering cumulus.
Becoming
from 26 at 21 UTC to 26 at 23 UTC
Wind 10 kt from the Southeast
Visibility 10 km or more
Few clouds at a height of 4000 ft, Towering cumulus.
Few clouds at a height of 5000 ft, Cumulonimbus.
thunderstorm in vicinity, rain

TAF: SAME 261700Z 2618/2718 09010KT 9999 FEW050TCU TX36/2620Z TN23/2710Z BECMG 2621/2623 14010KT 9999 VCTSRA FEW040TCU FEW050CB

Weather observations and forecasts of more than 4000 airports (METAR and TAF reports).

The available stations are represented by yellow and red dots on the map.

Hover mouse over dot to see the name of the station.

Then click to see weather observations and forecasts.

To change the map : click on the green buttons with a black cross to zoom in, on the green button with a dash to zoom out, or on the green arrows for adjacent maps.


METAR-TAF: